createdAt,value
2019-04-11T00:01:10.071Z,1016.64
2019-04-11T00:02:20.599Z,1016.74
2019-04-11T00:03:31.776Z,1016.71
2019-04-11T00:04:42.533Z,1016.71
2019-04-11T00:05:53.041Z,1016.74
2019-04-11T00:07:03.854Z,1016.75
2019-04-11T00:08:14.900Z,1016.72
2019-04-11T00:09:26.990Z,1016.74
2019-04-11T00:10:37.837Z,1016.76
2019-04-11T00:11:48.254Z,1016.79
2019-04-11T00:12:59.044Z,1016.75
2019-04-11T00:14:34.575Z,1016.77
2019-04-11T00:15:47.042Z,1016.77
2019-04-11T00:16:58.093Z,1016.8
2019-04-11T00:18:08.937Z,1016.81
2019-04-11T00:19:19.408Z,1016.81
2019-04-11T00:20:30.272Z,1016.85
2019-04-11T00:21:41.373Z,1016.85
2019-04-11T00:22:54.127Z,1016.84
2019-04-11T00:24:07.061Z,1016.88
2019-04-11T00:25:19.801Z,1016.82
2019-04-11T00:26:32.699Z,1016.84
2019-04-11T00:27:43.453Z,1016.83
2019-04-11T00:28:54.202Z,1016.87
2019-04-11T00:30:04.641Z,1016.87
2019-04-11T00:31:16.775Z,1016.89
2019-04-11T00:32:29.626Z,1016.92
2019-04-11T00:33:42.454Z,1016.92
2019-04-11T00:34:53.307Z,1016.96
2019-04-11T00:36:04.506Z,1016.87
2019-04-11T00:37:15.005Z,1016.94
2019-04-11T00:38:26.063Z,1016.94
2019-04-11T00:39:37.529Z,1016.89
2019-04-11T00:40:49.126Z,1016.89
2019-04-11T00:42:00.410Z,1016.89
2019-04-11T00:43:12.930Z,1016.9
2019-04-11T00:44:48.113Z,1016.89
2019-04-11T00:46:01.453Z,1016.96
2019-04-11T00:47:13.099Z,1016.91
2019-04-11T00:48:23.853Z,1016.93
2019-04-11T00:49:34.635Z,1016.95
2019-04-11T00:50:47.595Z,1016.94
2019-04-11T00:51:58.169Z,1016.88
2019-04-11T00:53:07.798Z,1016.92
2019-04-11T00:54:19.183Z,1016.92
2019-04-11T00:55:30.050Z,1016.93
2019-04-11T00:56:42.174Z,1016.9
2019-04-11T00:57:53.442Z,1016.93
2019-04-11T00:59:05.990Z,1016.93
2019-04-11T01:00:17.012Z,1016.92
2019-04-11T01:01:28.183Z,1016.94
2019-04-11T01:02:40.582Z,1016.91
2019-04-11T01:03:54.150Z,1016.91
2019-04-11T01:05:05.366Z,1016.94
2019-04-11T01:06:16.176Z,1016.94
2019-04-11T01:07:26.972Z,1016.97
2019-04-11T01:08:39.916Z,1016.92
2019-04-11T01:09:52.707Z,1016.97
2019-04-11T01:11:03.519Z,1016.96
2019-04-11T01:12:14.544Z,1017.01
2019-04-11T01:13:25.896Z,1017.02
2019-04-11T01:14:59.357Z,1017.01
2019-04-11T01:16:11.120Z,1017.04
2019-04-11T01:17:21.210Z,1017.02
2019-04-11T01:18:32.027Z,1017.07
2019-04-11T01:19:43.205Z,1017.03
2019-04-11T01:20:53.984Z,1017.04
2019-04-11T01:22:05.713Z,1017.05
2019-04-11T01:23:16.666Z,1017.04
2019-04-11T01:24:28.118Z,1017.11
2019-04-11T01:25:41.028Z,1017.07
2019-04-11T01:26:53.854Z,1017.11
2019-04-11T01:28:06.767Z,1017.07
2019-04-11T01:29:17.618Z,1017.05
2019-04-11T01:30:29.072Z,1017.08
2019-04-11T01:31:39.880Z,1017.09
2019-04-11T01:32:52.694Z,1017.11
2019-04-11T01:34:03.036Z,1017.09
2019-04-11T01:35:15.122Z,1017.08
2019-04-11T01:36:26.941Z,1017.06
2019-04-11T01:37:37.954Z,1017.1
2019-04-11T01:38:49.521Z,1017.09
2019-04-11T01:40:01.242Z,1017.1
2019-04-11T01:41:12.243Z,1017.12
2019-04-11T01:42:23.335Z,1017.12
2019-04-11T01:43:36.015Z,1017.13
2019-04-11T01:45:07.525Z,1017.16
2019-04-11T01:46:20.119Z,1017.14
2019-04-11T01:47:30.880Z,1017.15
2019-04-11T01:48:43.851Z,1017.13
2019-04-11T01:49:54.430Z,1017.14
2019-04-11T01:51:05.886Z,1017.1
2019-04-11T01:52:18.333Z,1017.13
2019-04-11T01:53:29.418Z,1017.16
2019-04-11T01:54:41.465Z,1017.14
2019-04-11T01:55:52.615Z,1017.17
2019-04-11T01:57:03.861Z,1017.18
2019-04-11T01:58:14.916Z,1017.21
2019-04-11T01:59:25.488Z,1017.22
2019-04-11T02:00:37.967Z,1017.23
2019-04-11T02:01:49.344Z,1017.24
2019-04-11T02:03:01.676Z,1017.22
2019-04-11T02:04:12.286Z,1017.22
2019-04-11T02:05:23.024Z,1017.23
2019-04-11T02:06:34.085Z,1017.21
2019-04-11T02:07:46.952Z,1017.23
2019-04-11T02:08:59.794Z,1017.27
2019-04-11T02:10:10.564Z,1017.25
2019-04-11T02:11:21.743Z,1017.29
2019-04-11T02:12:32.871Z,1017.29
2019-04-11T02:13:43.871Z,1017.3
2019-04-11T02:15:08.245Z,1017.27
2019-04-11T02:16:20.996Z,1017.31
2019-04-11T02:17:32.975Z,1017.33
2019-04-11T02:18:43.995Z,1017.33
2019-04-11T02:19:54.794Z,1017.28
2019-04-11T02:21:05.889Z,1017.32
2019-04-11T02:22:16.728Z,1017.32
2019-04-11T02:23:27.549Z,1017.3
2019-04-11T02:24:39.803Z,1017.35
2019-04-11T02:25:50.825Z,1017.32
2019-04-11T02:27:02.878Z,1017.32
2019-04-11T02:28:14.948Z,1017.32
2019-04-11T02:29:25.619Z,1017.36
2019-04-11T02:30:36.830Z,1017.38
2019-04-11T02:31:57.805Z,1017.32
2019-04-11T02:33:18.137Z,1017.37
2019-04-11T02:34:35.272Z,1017.37
2019-04-11T02:35:57.258Z,1017.38
2019-04-11T02:37:15.272Z,1017.37
2019-04-11T02:38:30.487Z,1017.34
2019-04-11T02:39:44.587Z,1017.4
2019-04-11T02:41:01.140Z,1017.39
2019-04-11T02:42:18.950Z,1017.39
2019-04-11T02:43:36.493Z,1017.48
2019-04-11T02:45:08.963Z,1017.45
2019-04-11T02:47:25.205Z,1017.49
2019-04-11T02:48:52.144Z,1017.47
2019-04-11T02:50:14.655Z,1017.5
2019-04-11T02:51:34.590Z,1017.47
2019-04-11T02:52:52.667Z,1017.51
2019-04-11T02:54:11.387Z,1017.52
2019-04-11T02:55:31.642Z,1017.5
2019-04-11T02:56:48.839Z,1017.51
2019-04-11T02:58:07.686Z,1017.46
2019-04-11T02:59:25.151Z,1017.49
2019-04-11T03:00:40.174Z,1017.51
2019-04-11T03:01:55.950Z,1017.52
2019-04-11T03:03:17.809Z,1017.57
2019-04-11T03:04:32.487Z,1017.56
2019-04-11T03:05:47.019Z,1017.57
2019-04-11T03:07:05.821Z,1017.56
2019-04-11T03:08:22.479Z,1017.54
2019-04-11T03:09:43.932Z,1017.58
2019-04-11T03:11:01.786Z,1017.6
2019-04-11T03:12:21.395Z,1017.6
2019-04-11T03:13:38.062Z,1017.65
2019-04-11T03:15:09.033Z,1017.61
2019-04-11T03:17:44.286Z,1017.64
2019-04-11T03:19:24.982Z,1017.61
2019-04-11T03:21:36.296Z,1017.61
2019-04-11T03:22:59.782Z,1017.61
2019-04-11T03:24:26.913Z,1017.66
2019-04-11T03:25:44.858Z,1017.63
2019-04-11T03:27:04.552Z,1017.64
2019-04-11T03:28:23.536Z,1017.65
2019-04-11T03:29:51.517Z,1017.67
2019-04-11T03:31:49.483Z,1017.68
2019-04-11T03:39:27.575Z,1017.74
2019-04-11T03:42:37.945Z,1017.74
2019-04-11T03:45:14.943Z,1017.73
2019-04-11T03:48:21.575Z,1017.73
2019-04-11T03:50:37.009Z,1017.72
2019-04-11T03:51:59.099Z,1017.74
2019-04-11T03:53:17.220Z,1017.71
2019-04-11T03:54:38.816Z,1017.7
2019-04-11T03:55:56.021Z,1017.75
2019-04-11T03:57:13.331Z,1017.75
2019-04-11T03:58:29.338Z,1017.7
2019-04-11T03:59:45.786Z,1017.68
2019-04-11T04:01:03.852Z,1017.76
2019-04-11T04:02:28.214Z,1017.8
2019-04-11T04:03:42.494Z,1017.78
2019-04-11T04:04:59.184Z,1017.78
2019-04-11T04:06:14.749Z,1017.81
2019-04-11T04:07:29.654Z,1017.8
2019-04-11T04:08:46.457Z,1017.81
2019-04-11T04:10:05.005Z,1017.78
2019-04-11T04:11:26.677Z,1017.84
2019-04-11T04:12:43.432Z,1017.88
2019-04-11T04:14:02.034Z,1017.85
2019-04-11T04:15:35.585Z,1017.93
2019-04-11T04:17:41.337Z,1017.96
2019-04-11T04:18:56.471Z,1017.97
2019-04-11T04:20:17.174Z,1017.98
2019-04-11T04:21:35.119Z,1017.96
2019-04-11T04:22:52.364Z,1017.99
2019-04-11T04:24:10.532Z,1018.02
2019-04-11T04:25:26.129Z,1018
2019-04-11T04:26:43.110Z,1018.02
2019-04-11T04:28:00.413Z,1018.05
2019-04-11T04:29:17.815Z,1018.04
2019-04-11T04:30:35.981Z,1018.07
2019-04-11T04:31:55.065Z,1018.08
2019-04-11T04:33:12.380Z,1018.07
2019-04-11T04:34:33.585Z,1018.11
2019-04-11T04:35:49.804Z,1018.12
2019-04-11T04:37:08.336Z,1018.11
2019-04-11T04:38:27.284Z,1018.13
2019-04-11T04:39:45.659Z,1018.15
2019-04-11T04:42:13.171Z,1018.26
2019-04-11T04:43:57.421Z,1018.25
2019-04-11T04:45:14.525Z,1018.2
2019-04-11T04:47:05.346Z,1018.21
2019-04-11T04:49:02.400Z,1018.21
2019-04-11T04:50:20.020Z,1018.28
2019-04-11T04:51:35.135Z,1018.3
2019-04-11T04:52:53.447Z,1018.3
2019-04-11T04:54:10.055Z,1018.29
2019-04-11T04:55:25.853Z,1018.34
2019-04-11T04:56:41.276Z,1018.38
2019-04-11T04:57:59.721Z,1018.35
2019-04-11T04:59:14.571Z,1018.36
2019-04-11T05:00:32.482Z,1018.37
2019-04-11T05:01:45.694Z,1018.38
2019-04-11T05:03:01.863Z,1018.4
2019-04-11T05:04:18.910Z,1018.38
2019-04-11T05:05:35.638Z,1018.39
2019-04-11T05:06:50.662Z,1018.37
2019-04-11T05:08:08.309Z,1018.37
2019-04-11T05:09:21.476Z,1018.37
2019-04-11T05:10:37.985Z,1018.38
2019-04-11T05:11:50.764Z,1018.4
2019-04-11T05:13:03.370Z,1018.45
2019-04-11T05:14:18.823Z,1018.41
2019-04-11T05:15:32.495Z,1018.45
2019-04-11T05:16:46.151Z,1018.47
2019-04-11T05:17:59.843Z,1018.47
2019-04-11T05:19:17.612Z,1018.48
2019-04-11T05:20:32.502Z,1018.48
2019-04-11T05:21:41.929Z,1018.47
2019-04-11T05:22:53.024Z,1018.47
2019-04-11T05:24:06.109Z,1018.5
2019-04-11T05:25:18.183Z,1018.57
2019-04-11T05:26:29.362Z,1018.54
2019-04-11T05:27:40.371Z,1018.6
2019-04-11T05:28:50.980Z,1018.6
2019-04-11T05:30:01.168Z,1018.6
2019-04-11T05:31:14.907Z,1018.64
2019-04-11T05:32:27.663Z,1018.65
2019-04-11T05:33:40.117Z,1018.68
2019-04-11T05:34:53.074Z,1018.67
2019-04-11T05:36:03.961Z,1018.64
2019-04-11T05:37:15.345Z,1018.7
2019-04-11T05:38:27.393Z,1018.71
2019-04-11T05:39:39.815Z,1018.73
2019-04-11T05:40:51.107Z,1018.72
2019-04-11T05:42:03.149Z,1018.75
2019-04-11T05:43:26.727Z,1018.76
2019-04-11T05:44:48.590Z,1018.74
2019-04-11T05:46:00.287Z,1018.72
2019-04-11T05:47:57.956Z,1018.76
2019-04-11T05:49:09.849Z,1018.76
2019-04-11T05:50:24.217Z,1018.79
2019-04-11T05:51:39.884Z,1018.78
2019-04-11T05:53:03.759Z,1018.76
2019-04-11T05:54:14.716Z,1018.78
2019-04-11T05:55:27.920Z,1018.76
2019-04-11T05:56:41.849Z,1018.77
2019-04-11T05:58:07.736Z,1018.8
2019-04-11T05:59:24.035Z,1018.78
2019-04-11T06:00:36.716Z,1018.75
2019-04-11T06:01:50.717Z,1018.75
2019-04-11T06:03:08.204Z,1018.76
2019-04-11T06:04:22.129Z,1018.77
2019-04-11T06:05:37.810Z,1018.79
2019-04-11T06:07:01.606Z,1018.83
2019-04-11T06:08:24.029Z,1018.82
2019-04-11T06:09:41.241Z,1018.85
2019-04-11T06:10:52.959Z,1018.85
2019-04-11T06:12:09.979Z,1018.87
2019-04-11T06:13:20.547Z,1018.84
2019-04-11T06:14:33.285Z,1018.93
2019-04-11T06:15:44.457Z,1018.92
2019-04-11T06:16:59.026Z,1018.97
2019-04-11T06:18:10.403Z,1018.95
2019-04-11T06:19:46.292Z,1018.96
2019-04-11T06:20:57.534Z,1018.93
2019-04-11T06:22:08.650Z,1018.95
2019-04-11T06:23:21.357Z,1018.94
2019-04-11T06:24:32.479Z,1018.93
2019-04-11T06:25:46.664Z,1018.94
2019-04-11T06:26:59.691Z,1018.94
2019-04-11T06:28:13.837Z,1018.94
2019-04-11T06:29:26.724Z,1018.93
2019-04-11T06:30:40.172Z,1018.92
2019-04-11T06:31:51.584Z,1018.94
2019-04-11T06:33:04.607Z,1018.95
2019-04-11T06:34:17.548Z,1018.96
2019-04-11T06:35:33.896Z,1019
2019-04-11T06:36:45.224Z,1019
2019-04-11T06:37:58.283Z,1018.97
2019-04-11T06:39:12.293Z,1019.03
2019-04-11T06:40:24.815Z,1019.03
2019-04-11T06:41:38.832Z,1019
2019-04-11T06:42:49.658Z,1018.94
2019-04-11T06:44:00.513Z,1019.03
2019-04-11T06:45:13.472Z,1019
2019-04-11T06:46:25.038Z,1019.01
2019-04-11T06:47:43.198Z,1019.04
2019-04-11T06:48:54.412Z,1019.02
2019-04-11T06:50:05.557Z,1019.06
2019-04-11T06:51:17.797Z,1019.04
2019-04-11T06:52:28.901Z,1019.06
2019-04-11T06:53:40.130Z,1019.08
2019-04-11T06:54:52.369Z,1019.08
2019-04-11T06:56:05.004Z,1019.06
2019-04-11T06:57:16.078Z,1019.08
2019-04-11T06:58:27.642Z,1019.08
2019-04-11T06:59:38.656Z,1019.05
2019-04-11T07:00:49.959Z,1019.08
2019-04-11T07:02:08.622Z,1019.04
2019-04-11T07:03:32.359Z,1019.07
2019-04-11T07:04:44.073Z,1019.08
2019-04-11T07:05:55.264Z,1019.09
2019-04-11T07:07:06.475Z,1019.07
2019-04-11T07:08:20.218Z,1019.1
2019-04-11T07:09:33.028Z,1019.09
2019-04-11T07:10:42.542Z,1019.14
2019-04-11T07:11:53.909Z,1019.1
2019-04-11T07:13:05.567Z,1019.19
2019-04-11T07:14:15.351Z,1019.18
2019-04-11T07:15:25.614Z,1019.2
2019-04-11T07:16:38.301Z,1019.19
2019-04-11T07:18:01.017Z,1019.2
2019-04-11T07:19:15.558Z,1019.18
2019-04-11T07:20:25.604Z,1019.21
2019-04-11T07:21:38.015Z,1019.25
2019-04-11T07:22:47.219Z,1019.23
2019-04-11T07:23:58.118Z,1019.22
2019-04-11T07:25:08.269Z,1019.29
2019-04-11T07:26:18.866Z,1019.26
2019-04-11T07:27:30.201Z,1019.22
2019-04-11T07:28:41.714Z,1019.22
2019-04-11T07:29:54.244Z,1019.28
2019-04-11T07:31:06.856Z,1019.25
2019-04-11T07:32:20.160Z,1019.28
2019-04-11T07:33:31.414Z,1019.24
2019-04-11T07:34:43.751Z,1019.28
2019-04-11T07:35:59.653Z,1019.31
2019-04-11T07:37:12.579Z,1019.34
2019-04-11T07:38:24.135Z,1019.33
2019-04-11T07:39:35.428Z,1019.28
2019-04-11T07:40:50.348Z,1019.28
2019-04-11T07:42:04.823Z,1019.3
2019-04-11T07:43:22.530Z,1019.29
2019-04-11T07:44:32.457Z,1019.26
2019-04-11T07:45:43.794Z,1019.32
2019-04-11T07:46:55.820Z,1019.31
2019-04-11T07:48:27.271Z,1019.33
2019-04-11T07:49:37.301Z,1019.31
2019-04-11T07:50:48.758Z,1019.29
2019-04-11T07:52:02.658Z,1019.32
2019-04-11T07:53:13.902Z,1019.26
2019-04-11T07:54:25.882Z,1019.28
2019-04-11T07:55:38.494Z,1019.29
2019-04-11T07:56:50.647Z,1019.3
2019-04-11T07:58:02.187Z,1019.26
2019-04-11T07:59:13.607Z,1019.28
2019-04-11T08:00:36.522Z,1019.35
2019-04-11T08:01:57.729Z,1019.32
2019-04-11T08:03:12.840Z,1019.27
2019-04-11T08:04:24.176Z,1019.35
2019-04-11T08:05:34.876Z,1019.34
2019-04-11T08:06:47.936Z,1019.3
2019-04-11T08:07:59.441Z,1019.34
2019-04-11T08:09:13.811Z,1019.31
2019-04-11T08:10:25.013Z,1019.29
2019-04-11T08:11:35.979Z,1019.29
2019-04-11T08:12:45.849Z,1019.3
2019-04-11T08:13:56.713Z,1019.28
2019-04-11T08:15:09.021Z,1019.22
2019-04-11T08:16:20.375Z,1019.23
2019-04-11T08:17:37.501Z,1019.31
2019-04-11T08:18:51.253Z,1019.26
2019-04-11T08:20:03.003Z,1019.22
2019-04-11T08:21:14.268Z,1019.27
2019-04-11T08:22:27.224Z,1019.25
2019-04-11T08:23:40.126Z,1019.3
2019-04-11T08:24:53.151Z,1019.27
2019-04-11T08:26:06.103Z,1019.27
2019-04-11T08:27:18.382Z,1019.29
2019-04-11T08:28:30.970Z,1019.33
2019-04-11T08:29:44.350Z,1019.38
2019-04-11T08:30:59.272Z,1019.33
2019-04-11T08:32:11.771Z,1019.33
2019-04-11T08:33:23.074Z,1019.38
2019-04-11T08:34:35.551Z,1019.29
2019-04-11T08:35:46.563Z,1019.29
2019-04-11T08:37:05.665Z,1019.3
2019-04-11T08:38:18.311Z,1019.29
2019-04-11T08:39:31.105Z,1019.28
2019-04-11T08:40:42.911Z,1019.3
2019-04-11T08:41:54.221Z,1019.32
2019-04-11T08:43:06.629Z,1019.4
2019-04-11T08:44:17.869Z,1019.35
2019-04-11T08:45:29.734Z,1019.37
2019-04-11T08:46:41.004Z,1019.41
2019-04-11T08:47:54.256Z,1019.4
2019-04-11T08:49:07.703Z,1019.44
2019-04-11T08:50:18.602Z,1019.39
2019-04-11T08:51:29.382Z,1019.41
2019-04-11T08:52:40.277Z,1019.43
2019-04-11T08:53:53.135Z,1019.45
2019-04-11T08:55:06.175Z,1019.42
2019-04-11T08:56:21.057Z,1019.45
2019-04-11T08:57:36.095Z,1019.44
2019-04-11T08:58:48.996Z,1019.48
2019-04-11T09:00:02.133Z,1019.39
2019-04-11T09:01:14.252Z,1019.34
2019-04-11T09:02:26.855Z,1019.37
2019-04-11T09:03:38.180Z,1019.36
2019-04-11T09:05:13.480Z,1019.32
2019-04-11T09:06:28.399Z,1019.35
2019-04-11T09:07:39.833Z,1019.32
2019-04-11T09:08:52.461Z,1019.37
2019-04-11T09:10:04.069Z,1019.39
2019-04-11T09:11:16.981Z,1019.39
2019-04-11T09:12:29.293Z,1019.35
2019-04-11T09:13:39.745Z,1019.33
2019-04-11T09:14:50.560Z,1019.35
2019-04-11T09:16:01.394Z,1019.35
2019-04-11T09:17:14.335Z,1019.36
2019-04-11T09:18:26.720Z,1019.35
2019-04-11T09:19:39.052Z,1019.36
2019-04-11T09:20:50.474Z,1019.4
2019-04-11T09:22:02.838Z,1019.36
2019-04-11T09:23:13.997Z,1019.34
2019-04-11T09:24:26.345Z,1019.37
2019-04-11T09:25:37.460Z,1019.37
2019-04-11T09:26:51.998Z,1019.35
2019-04-11T09:28:03.194Z,1019.34
2019-04-11T09:29:14.254Z,1019.34
2019-04-11T09:30:26.582Z,1019.36
2019-04-11T09:31:37.957Z,1019.36
2019-04-11T09:32:52.808Z,1019.36
2019-04-11T09:34:05.774Z,1019.31
2019-04-11T09:35:18.514Z,1019.33
2019-04-11T09:36:30.619Z,1019.39
2019-04-11T09:37:43.303Z,1019.3
2019-04-11T09:38:54.864Z,1019.31
2019-04-11T09:40:05.770Z,1019.34
2019-04-11T09:41:18.540Z,1019.26
2019-04-11T09:42:31.066Z,1019.27
2019-04-11T09:43:44.259Z,1019.33
2019-04-11T09:44:57.162Z,1019.31
2019-04-11T09:46:10.260Z,1019.28
2019-04-11T09:47:22.564Z,1019.32
2019-04-11T09:48:33.711Z,1019.36
2019-04-11T09:49:45.114Z,1019.34
2019-04-11T09:50:56.661Z,1019.4
2019-04-11T09:52:08.751Z,1019.41
2019-04-11T09:53:20.644Z,1019.42
2019-04-11T09:54:32.202Z,1019.36
2019-04-11T09:55:43.744Z,1019.36
2019-04-11T09:56:54.192Z,1019.23
2019-04-11T09:58:05.178Z,1019.3
2019-04-11T09:59:16.418Z,1019.32
2019-04-11T10:00:26.570Z,1019.36
2019-04-11T10:01:39.309Z,1019.34
2019-04-11T10:02:50.669Z,1019.36
2019-04-11T10:04:01.630Z,1019.29
2019-04-11T10:05:11.779Z,1019.33
2019-04-11T10:06:23.785Z,1019.34
2019-04-11T10:07:35.529Z,1019.34
2019-04-11T10:08:47.032Z,1019.3
2019-04-11T10:09:58.465Z,1019.23
2019-04-11T10:11:11.243Z,1019.29
2019-04-11T10:12:22.070Z,1019.33
2019-04-11T10:13:33.869Z,1019.34
2019-04-11T10:14:46.302Z,1019.34
2019-04-11T10:15:56.253Z,1019.36
2019-04-11T10:17:08.653Z,1019.34
2019-04-11T10:18:27.617Z,1019.4
2019-04-11T10:19:48.412Z,1019.4
2019-04-11T10:21:01.262Z,1019.39
2019-04-11T10:22:13.529Z,1019.42
2019-04-11T10:23:24.892Z,1019.39
2019-04-11T10:24:36.640Z,1019.32
2019-04-11T10:25:47.595Z,1019.36
2019-04-11T10:27:00.498Z,1019.35
2019-04-11T10:28:13.252Z,1019.36
2019-04-11T10:29:25.754Z,1019.32
2019-04-11T10:30:40.318Z,1019.33
2019-04-11T10:31:51.301Z,1019.39
2019-04-11T10:33:04.301Z,1019.34
2019-04-11T10:34:15.806Z,1019.35
2019-04-11T10:35:27.186Z,1019.37
2019-04-11T10:36:39.179Z,1019.29
2019-04-11T10:37:50.780Z,1019.32
2019-04-11T10:39:02.831Z,1019.38
2019-04-11T10:40:13.934Z,1019.39
2019-04-11T10:41:26.961Z,1019.38
2019-04-11T10:42:39.003Z,1019.41
2019-04-11T10:43:50.158Z,1019.35
2019-04-11T10:45:02.766Z,1019.41
2019-04-11T10:46:15.466Z,1019.43
2019-04-11T10:47:26.940Z,1019.41
2019-04-11T10:48:39.715Z,1019.47
2019-04-11T10:49:56.703Z,1019.45
2019-04-11T10:51:08.727Z,1019.45
2019-04-11T10:52:22.441Z,1019.45
2019-04-11T10:53:35.348Z,1019.49
2019-04-11T10:54:47.522Z,1019.49
2019-04-11T10:55:58.526Z,1019.47
2019-04-11T10:57:09.648Z,1019.5
2019-04-11T10:58:22.680Z,1019.45
2019-04-11T10:59:32.443Z,1019.46
2019-04-11T11:00:43.580Z,1019.46
2019-04-11T11:01:56.170Z,1019.46
2019-04-11T11:03:07.359Z,1019.42
2019-04-11T11:04:17.864Z,1019.42
2019-04-11T11:05:28.840Z,1019.45
2019-04-11T11:06:41.966Z,1019.47
2019-04-11T11:07:55.140Z,1019.48
2019-04-11T11:09:05.978Z,1019.42
2019-04-11T11:10:15.515Z,1019.48
2019-04-11T11:11:26.507Z,1019.41
2019-04-11T11:12:37.676Z,1019.44
2019-04-11T11:13:50.027Z,1019.45
2019-04-11T11:15:01.222Z,1019.5
2019-04-11T11:16:14.064Z,1019.45
2019-04-11T11:17:45.770Z,1019.52
2019-04-11T11:20:57.019Z,1019.56
2019-04-11T11:22:14.663Z,1019.53
2019-04-11T11:23:28.973Z,1019.51
2019-04-11T11:24:42.069Z,1019.55
2019-04-11T11:25:53.360Z,1019.5
2019-04-11T11:27:05.699Z,1019.49
2019-04-11T11:28:17.798Z,1019.5
2019-04-11T11:29:29.106Z,1019.56
2019-04-11T11:30:40.925Z,1019.55
2019-04-11T11:31:52.570Z,1019.57
2019-04-11T11:33:03.732Z,1019.65
2019-04-11T11:34:19.886Z,1019.61
2019-04-11T11:35:35.976Z,1019.53
2019-04-11T11:36:54.498Z,1019.52
2019-04-11T11:38:07.484Z,1019.56
2019-04-11T11:39:19.295Z,1019.59
2019-04-11T11:40:32.042Z,1019.58
2019-04-11T11:41:48.927Z,1019.61
2019-04-11T11:43:00.956Z,1019.58
2019-04-11T11:44:11.749Z,1019.61
2019-04-11T11:45:23.572Z,1019.62
2019-04-11T11:46:34.137Z,1019.61
2019-04-11T11:47:45.422Z,1019.59
2019-04-11T11:48:59.561Z,1019.63
2019-04-11T11:50:16.168Z,1019.62
2019-04-11T11:51:37.947Z,1019.71
2019-04-11T11:52:49.009Z,1019.68
2019-04-11T11:53:59.909Z,1019.64
2019-04-11T11:55:10.376Z,1019.7
2019-04-11T11:56:24.062Z,1019.76
2019-04-11T11:57:35.092Z,1019.72
2019-04-11T11:58:51.740Z,1019.73
2019-04-11T12:00:07.460Z,1019.73
2019-04-11T12:01:18.297Z,1019.68
2019-04-11T12:02:30.595Z,1019.61
2019-04-11T12:03:42.885Z,1019.66
2019-04-11T12:05:00.264Z,1019.71
2019-04-11T12:06:23.822Z,1019.69
2019-04-11T12:07:37.373Z,1019.7
2019-04-11T12:08:51.209Z,1019.7
2019-04-11T12:10:02.924Z,1019.7
2019-04-11T12:11:14.078Z,1019.7
2019-04-11T12:12:24.870Z,1019.76
2019-04-11T12:13:37.739Z,1019.69
2019-04-11T12:14:52.018Z,1019.75
2019-04-11T12:16:01.994Z,1019.75
2019-04-11T12:17:18.521Z,1019.73
2019-04-11T12:18:32.921Z,1019.83
2019-04-11T12:20:02.448Z,1019.72
2019-04-11T12:21:24.775Z,1019.73
2019-04-11T12:22:42.206Z,1019.78
2019-04-11T12:24:02.505Z,1019.77
2019-04-11T12:25:18.675Z,1019.79
2019-04-11T12:26:33.172Z,1019.78
2019-04-11T12:27:47.772Z,1019.74
2019-04-11T12:28:59.625Z,1019.74
2019-04-11T12:30:11.040Z,1019.73
2019-04-11T12:31:35.417Z,1019.74
2019-04-11T12:32:48.756Z,1019.76
2019-04-11T12:33:59.897Z,1019.74
2019-04-11T12:35:11.594Z,1019.7
2019-04-11T12:36:26.438Z,1019.71
2019-04-11T12:37:37.873Z,1019.75
2019-04-11T12:38:55.437Z,1019.69
2019-04-11T12:40:05.489Z,1019.71
2019-04-11T12:41:17.023Z,1019.71
2019-04-11T12:42:27.965Z,1019.7
2019-04-11T12:43:37.969Z,1019.67
2019-04-11T12:44:47.702Z,1019.67
2019-04-11T12:46:00.069Z,1019.67
2019-04-11T12:47:09.535Z,1019.66
2019-04-11T12:48:19.670Z,1019.69
2019-04-11T12:49:29.225Z,1019.61
2019-04-11T12:50:38.939Z,1019.64
2019-04-11T12:51:48.909Z,1019.64
2019-04-11T12:52:58.676Z,1019.66
2019-04-11T12:54:08.772Z,1019.62
2019-04-11T12:55:18.726Z,1019.64
2019-04-11T12:56:28.671Z,1019.64
2019-04-11T12:57:41.148Z,1019.61
2019-04-11T12:58:51.115Z,1019.6
2019-04-11T13:00:01.080Z,1019.6
2019-04-11T13:01:10.783Z,1019.53
2019-04-11T13:02:20.741Z,1019.57
2019-04-11T13:03:30.694Z,1019.58
2019-04-11T13:04:43.977Z,1019.61
2019-04-11T13:05:54.353Z,1019.63
2019-04-11T13:07:03.847Z,1019.62
2019-04-11T13:08:13.560Z,1019.62
2019-04-11T13:09:23.527Z,1019.64
2019-04-11T13:10:33.223Z,1019.65
2019-04-11T13:11:43.181Z,1019.65
2019-04-11T13:12:53.173Z,1019.62
2019-04-11T13:14:03.127Z,1019.63
2019-04-11T13:15:15.147Z,1019.63
2019-04-11T13:16:25.110Z,1019.59
2019-04-11T13:17:34.799Z,1019.64
2019-04-11T13:18:44.782Z,1019.6
2019-04-11T13:20:04.196Z,1019.63
2019-04-11T13:21:14.323Z,1019.63
2019-04-11T13:22:24.031Z,1019.65
2019-04-11T13:23:34.003Z,1019.64
2019-04-11T13:24:45.647Z,1019.64
2019-04-11T13:25:55.597Z,1019.61
2019-04-11T13:27:05.557Z,1019.63
2019-04-11T13:28:15.513Z,1019.6
2019-04-11T13:29:25.486Z,1019.66
2019-04-11T13:30:35.466Z,1019.59
2019-04-11T13:31:45.193Z,1019.63
2019-04-11T13:32:55.160Z,1019.63
2019-04-11T13:34:05.132Z,1019.63
2019-04-11T13:35:16.249Z,1019.59
2019-04-11T13:36:25.965Z,1019.63
2019-04-11T13:37:35.919Z,1019.67
2019-04-11T13:38:45.929Z,1019.62
2019-04-11T13:39:56.680Z,1019.65
2019-04-11T13:41:06.685Z,1019.67
2019-04-11T13:42:16.719Z,1019.63
2019-04-11T13:43:26.679Z,1019.62
2019-04-11T13:44:36.665Z,1019.58
2019-04-11T13:45:46.639Z,1019.6
2019-04-11T13:46:56.349Z,1019.57
2019-04-11T13:48:06.299Z,1019.57
2019-04-11T13:49:16.267Z,1019.55
2019-04-11T13:50:26.549Z,1019.55
2019-04-11T13:51:36.272Z,1019.55
2019-04-11T13:52:45.996Z,1019.54
2019-04-11T13:53:55.720Z,1019.53
2019-04-11T13:55:05.435Z,1019.53
2019-04-11T13:56:15.402Z,1019.54
2019-04-11T13:57:25.355Z,1019.5
2019-04-11T13:58:35.316Z,1019.53
2019-04-11T13:59:45.025Z,1019.53
2019-04-11T14:00:54.754Z,1019.52
2019-04-11T14:02:04.482Z,1019.49
2019-04-11T14:03:14.247Z,1019.52
2019-04-11T14:04:24.222Z,1019.48
2019-04-11T14:05:34.190Z,1019.52
2019-04-11T14:06:44.179Z,1019.51
2019-04-11T14:07:53.965Z,1019.55
2019-04-11T14:09:03.929Z,1019.5
2019-04-11T14:10:13.913Z,1019.53
2019-04-11T14:11:23.375Z,1019.55
2019-04-11T14:12:36.455Z,1019.56
2019-04-11T14:13:46.391Z,1019.52
2019-04-11T14:14:56.981Z,1019.51
2019-04-11T14:16:11.144Z,1019.51
2019-04-11T14:17:21.881Z,1019.48
2019-04-11T14:18:32.015Z,1019.47
2019-04-11T14:19:44.515Z,1019.51
2019-04-11T14:20:54.255Z,1019.49
2019-04-11T14:22:03.952Z,1019.5
2019-04-11T14:23:16.569Z,1019.48
2019-04-11T14:24:26.560Z,1019.44
2019-04-11T14:25:36.257Z,1019.44
2019-04-11T14:26:45.701Z,1019.44
2019-04-11T14:27:55.690Z,1019.44
2019-04-11T14:29:05.392Z,1019.44
2019-04-11T14:30:16.292Z,1019.47
2019-04-11T14:31:28.349Z,1019.43
2019-04-11T14:32:38.062Z,1019.42
2019-04-11T14:33:48.002Z,1019.42
2019-04-11T14:35:01.252Z,1019.46
2019-04-11T14:36:10.703Z,1019.45
2019-04-11T14:37:20.661Z,1019.47
2019-04-11T14:38:46.641Z,1019.44
2019-04-11T14:39:59.730Z,1019.44
2019-04-11T14:41:12.374Z,1019.46
2019-04-11T14:42:22.450Z,1019.45
2019-04-11T14:43:32.995Z,1019.44
2019-04-11T14:44:45.996Z,1019.46
2019-04-11T14:45:55.696Z,1019.47
2019-04-11T14:47:07.990Z,1019.45
2019-04-11T14:48:17.445Z,1019.46
2019-04-11T14:49:27.423Z,1019.46
2019-04-11T14:50:44.938Z,1019.46
2019-04-11T14:51:54.984Z,1019.53
2019-04-11T14:53:06.353Z,1019.49
2019-04-11T14:54:19.672Z,1019.48
2019-04-11T14:55:29.641Z,1019.47
2019-04-11T14:56:43.721Z,1019.45
2019-04-11T14:57:58.119Z,1019.49
2019-04-11T14:59:08.099Z,1019.52
2019-04-11T15:00:18.069Z,1019.49
2019-04-11T15:01:31.492Z,1019.52
2019-04-11T15:02:41.210Z,1019.48
2019-04-11T15:03:51.193Z,1019.52
2019-04-11T15:05:01.163Z,1019.56
2019-04-11T15:06:16.581Z,1019.53
2019-04-11T15:07:26.552Z,1019.47
2019-04-11T15:08:38.599Z,1019.51
2019-04-11T15:09:50.453Z,1019.51
2019-04-11T15:11:00.434Z,1019.44
2019-04-11T15:12:12.466Z,1019.47
2019-04-11T15:13:25.358Z,1019.46
2019-04-11T15:14:35.079Z,1019.47